createdAt,value
2022-10-18T00:12:52.272Z,17.5
2022-10-18T00:27:25.893Z,17.4
2022-10-18T00:41:59.486Z,17.4
2022-10-18T00:56:33.103Z,17.4
2022-10-18T01:11:06.751Z,17.1
2022-10-18T01:25:39.340Z,17.1
2022-10-18T01:40:13.170Z,17
2022-10-18T01:54:47.416Z,17.4
2022-10-18T02:09:35.057Z,17.4
2022-10-18T02:24:02.286Z,17.4
2022-10-18T02:38:40.689Z,16.8
2022-10-18T02:53:10.229Z,17.1
2022-10-18T03:07:43.679Z,17.1
2022-10-18T03:22:22.398Z,16.8
2022-10-18T03:36:52.189Z,16.7
2022-10-18T03:51:25.351Z,16.9
2022-10-18T04:05:59.234Z,16.9
2022-10-18T04:20:32.501Z,16.7
2022-10-18T04:35:05.672Z,16.6
2022-10-18T04:49:39.242Z,16.3
2022-10-18T05:04:12.324Z,16.4
2022-10-18T05:18:46.658Z,16.5
2022-10-18T05:33:19.762Z,16.5
2022-10-18T05:47:52.848Z,16.5
2022-10-18T06:02:32.397Z,16.5
2022-10-18T06:17:08.248Z,16.4
2022-10-18T06:31:37.432Z,16.4
2022-10-18T06:46:11.324Z,16.5
2022-10-18T07:00:44.185Z,16.4
2022-10-18T07:15:21.754Z,16.5
2022-10-18T07:29:49.496Z,16.5
2022-10-18T07:44:20.535Z,16.6
2022-10-18T07:59:01.871Z,16.7
2022-10-18T08:13:38.267Z,16.8
2022-10-18T08:28:08.373Z,16.7
2022-10-18T08:42:42.739Z,16.8
2022-10-18T08:57:15.515Z,17
2022-10-18T09:11:49.249Z,17
2022-10-18T09:26:23.311Z,17.2
2022-10-18T09:40:56.828Z,17.3
2022-10-18T09:55:30.536Z,17.3
2022-10-18T10:10:04.377Z,17.4
2022-10-18T10:24:37.004Z,17.6
2022-10-18T10:39:18.434Z,18
2022-10-18T10:53:54.625Z,18.4
2022-10-18T11:08:31.482Z,18.4
2022-10-18T11:23:09.975Z,19.1
2022-10-18T11:37:38.715Z,18.4
2022-10-18T11:52:10.405Z,18.3
2022-10-18T12:06:45.335Z,19.3
2022-10-18T12:21:23.254Z,19.4
2022-10-18T12:35:55.110Z,18.8
2022-10-18T12:50:27.238Z,18.5
2022-10-18T13:05:17.398Z,18.5
2022-10-18T13:20:24.913Z,18.5
2022-10-18T13:34:51.874Z,18.8
2022-10-18T13:49:23.995Z,18.5
2022-10-18T14:04:01.845Z,18.3
2022-10-18T14:18:32.020Z,19
2022-10-18T14:33:12.101Z,18.7
2022-10-18T14:47:40.288Z,18.2
2022-10-18T15:02:12.945Z,18.1
2022-10-18T15:16:45.169Z,18.5
2022-10-18T15:31:19.701Z,18.3
2022-10-18T15:45:51.840Z,18
2022-10-18T16:00:24.931Z,17.9
2022-10-18T16:14:54.807Z,17.2
2022-10-18T16:29:32.775Z,16.6
2022-10-18T16:44:06.280Z,16.3
2022-10-18T16:58:34.094Z,15.6
2022-10-18T17:13:05.868Z,15.4
2022-10-18T17:27:38.666Z,15.1
2022-10-18T17:42:11.118Z,14.7
2022-10-18T17:56:43.272Z,14.4
2022-10-18T18:11:21.723Z,13.8
2022-10-18T18:25:56.879Z,13.9
2022-10-18T18:40:26.119Z,13.5
2022-10-18T18:54:57.700Z,13.4
2022-10-18T19:09:31.071Z,13.4
2022-10-18T19:24:04.344Z,12.8
2022-10-18T19:38:36.648Z,12.7
2022-10-18T19:53:09.135Z,12.3
2022-10-18T20:07:40.951Z,11.7
2022-10-18T20:22:15.309Z,12.2
2022-10-18T20:36:48.835Z,12.1
2022-10-18T20:51:21.372Z,11.5
2022-10-18T21:05:55.115Z,11.7
2022-10-18T21:20:27.965Z,11
2022-10-18T21:35:06.169Z,10.9
2022-10-18T21:49:42.151Z,10.5
2022-10-18T22:04:09.498Z,10.6
2022-10-18T22:18:42.686Z,9.8
2022-10-18T22:33:21.412Z,10.2
2022-10-18T22:47:56.365Z,9.4
2022-10-18T23:02:24.498Z,9.5
2022-10-18T23:16:59.249Z,10.1
2022-10-18T23:31:31.876Z,9.5
2022-10-18T23:46:02.962Z,8.7
